Time;durP1;ratioP1;P1;durP2;ratioP2;P2;SDS_P1;SDS_P2;PMS_P1;PMS_P2;Temp;Humidity;BMP_temperature;BMP_pressure;BME280_temperature;BME280_humidity;BME280_pressure;Samples;Min_cycle;Max_cycle;Signal;HPM_P1;HPM_P2
2024/01/26 00:02:01;;;;;;;2.17;0.80;;;;;;;4.06;100.00;102000.31;5073929;28;20491;-66
2024/01/26 00:04:29;;;;;;;1.60;0.40;;;;;;;3.97;100.00;101993.59;5074283;28;20800;-66
2024/01/26 00:06:56;;;;;;;2.00;0.67;;;;;;;3.90;100.00;101993.69;5073803;28;20484;-66
2024/01/26 00:09:22;;;;;;;2.10;0.97;;;;;;;3.85;100.00;102003.41;5074015;28;20532;-66
2024/01/26 00:11:49;;;;;;;2.20;0.90;;;;;;;3.85;100.00;102004.25;5073650;28;20540;-66
2024/01/26 00:14:15;;;;;;;4.43;1.10;;;;;;;3.78;100.00;102001.63;5073361;28;20913;-66
2024/01/26 00:16:42;;;;;;;4.00;1.57;;;;;;;3.83;100.00;102008.19;5073619;28;20455;-66
2024/01/26 00:19:09;;;;;;;1.90;0.83;;;;;;;3.87;100.00;102014.72;5073976;28;20437;-66
2024/01/26 00:21:37;;;;;;;1.80;0.50;;;;;;;3.87;100.00;102009.38;5073836;28;20491;-66
2024/01/26 00:24:05;;;;;;;2.63;0.53;;;;;;;3.83;100.00;102002.81;5073474;28;20519;-66
2024/01/26 00:26:31;;;;;;;1.70;0.43;;;;;;;3.89;100.00;101999.25;5073550;28;20802;-66
2024/01/26 00:28:58;;;;;;;2.10;0.67;;;;;;;3.92;100.00;101990.75;5072513;28;20976;-66
2024/01/26 00:31:24;;;;;;;1.90;0.60;;;;;;;3.97;100.00;101996.28;5073403;28;20437;-66
2024/01/26 00:33:51;;;;;;;1.60;0.43;;;;;;;4.00;100.00;101993.97;5073832;28;20512;-66
2024/01/26 00:36:18;;;;;;;1.87;0.60;;;;;;;4.00;100.00;101993.16;5073455;28;20984;-66
2024/01/26 00:38:46;;;;;;;2.03;0.90;;;;;;;4.00;100.00;101982.44;5073505;28;20524;-66
2024/01/26 00:41:12;;;;;;;1.60;0.40;;;;;;;4.01;100.00;101986.75;5072959;28;20536;-66
2024/01/26 00:43:39;;;;;;;1.80;0.70;;;;;;;4.06;100.00;101981.53;5073119;28;20496;-66
2024/01/26 00:46:05;;;;;;;2.00;0.83;;;;;;;4.06;100.00;101984.22;5073340;28;20513;-66
2024/01/26 00:48:32;;;;;;;4.83;1.20;;;;;;;4.01;100.00;101984.06;5073340;28;20445;-66
2024/01/26 00:50:59;;;;;;;3.23;1.40;;;;;;;3.98;100.00;101988.00;5073523;28;20469;-66
2024/01/26 00:53:25;;;;;;;2.17;0.93;;;;;;;3.92;100.00;101980.03;5073495;28;20453;-66
2024/01/26 00:55:53;;;;;;;12.37;1.63;;;;;;;3.86;100.00;101983.63;5072917;28;21011;-66
2024/01/26 00:58:20;;;;;;;2.10;0.63;;;;;;;3.84;100.00;101986.50;5073203;28;20441;-66
2024/01/26 01:00:47;;;;;;;1.70;0.50;;;;;;;3.84;100.00;101988.38;5073287;28;20441;-66
2024/01/26 01:03:14;;;;;;;1.70;0.50;;;;;;;3.79;100.00;101981.81;5072967;28;20480;-66
2024/01/26 01:05:42;;;;;;;6.03;2.33;;;;;;;3.77;100.00;101981.22;5073476;28;20437;-66
2024/01/26 01:08:08;;;;;;;1.70;0.40;;;;;;;3.75;100.00;101985.97;5073200;28;20441;-66
2024/01/26 01:10:36;;;;;;;2.30;0.87;;;;;;;3.69;100.00;101981.50;5073438;28;20437;-66
2024/01/26 01:13:05;;;;;;;2.00;0.80;;;;;;;3.68;100.00;101985.22;5072703;28;20465;-66
2024/01/26 01:15:31;;;;;;;3.20;1.30;;;;;;;3.69;100.00;101973.47;5073483;28;20536;-66
2024/01/26 01:17:58;;;;;;;1.70;0.50;;;;;;;3.65;100.00;101964.22;5072669;28;20525;-66
2024/01/26 01:20:25;;;;;;;2.83;0.80;;;;;;;3.63;100.00;101977.03;5073005;28;20465;-66
2024/01/26 01:22:51;;;;;;;1.90;0.70;;;;;;;3.59;100.00;101975.84;5072502;28;21027;-66
2024/01/26 01:25:18;;;;;;;2.50;1.10;;;;;;;3.49;100.00;101973.63;5073227;28;20480;-66
2024/01/26 01:27:44;;;;;;;4.03;0.60;;;;;;;3.49;100.00;101978.16;5072717;28;20520;-66
2024/01/26 01:30:13;;;;;;;3.10;1.13;;;;;;;3.40;100.00;101971.44;5073221;28;20433;-66
2024/01/26 01:32:39;;;;;;;1.80;0.40;;;;;;;3.35;100.00;101968.63;5073169;28;20449;-66
2024/01/26 01:35:06;;;;;;;1.90;0.60;;;;;;;3.36;100.00;101964.88;5072843;28;20437;-66
2024/01/26 01:37:33;;;;;;;1.80;0.43;;;;;;;3.28;100.00;101963.31;5072501;28;20527;-66
2024/01/26 01:40:00;;;;;;;1.83;0.77;;;;;;;3.23;100.00;101961.31;5074790;28;20441;-66
2024/01/26 01:42:26;;;;;;;2.00;0.70;;;;;;;3.18;100.00;101963.78;5076252;28;20516;-66
2024/01/26 01:44:53;;;;;;;5.10;1.23;;;;;;;3.19;100.00;101964.63;5076119;28;20506;-66
2024/01/26 01:47:21;;;;;;;2.00;0.60;;;;;;;3.16;100.00;101960.53;5076627;28;20524;-66
2024/01/26 01:49:49;;;;;;;2.13;0.90;;;;;;;3.07;100.00;101956.47;5076295;28;20494;-66
2024/01/26 01:52:18;;;;;;;2.13;0.90;;;;;;;3.08;100.00;101958.09;5076429;28;20636;-66
2024/01/26 01:54:45;;;;;;;2.00;0.73;;;;;;;3.06;100.00;101956.69;5076363;28;20436;-66
2024/01/26 01:57:12;;;;;;;1.90;0.63;;;;;;;2.97;100.00;101948.94;5076205;28;20429;-66
2024/01/26 01:59:41;;;;;;;4.00;2.50;;;;;;;3.02;100.00;101942.94;5076456;28;20476;-66
2024/01/26 02:02:08;;;;;;;2.00;0.57;;;;;;;3.01;100.00;101942.09;5075622;28;20491;-66
2024/01/26 02:04:36;;;;;;;2.87;1.67;;;;;;;3.08;100.00;101936.69;5076418;28;20442;-66
2024/01/26 02:07:04;;;;;;;1.60;0.30;;;;;;;3.12;100.00;101927.19;5076311;28;20445;-66
2024/01/26 02:09:32;;;;;;;1.80;0.80;;;;;;;3.02;100.00;101929.53;5076230;28;20480;-66
2024/01/26 02:12:00;;;;;;;1.90;0.80;;;;;;;2.93;100.00;101917.47;5076416;28;20504;-66
2024/01/26 02:14:26;;;;;;;2.10;1.00;;;;;;;2.91;100.00;101920.34;5076189;28;20433;-66
2024/01/26 02:16:54;;;;;;;2.00;0.97;;;;;;;2.74;100.00;101924.56;5075823;28;20473;-66
2024/01/26 02:19:21;;;;;;;1.70;0.67;;;;;;;2.72;100.00;101930.16;5075413;28;20490;-66
2024/01/26 02:21:50;;;;;;;1.70;0.40;;;;;;;2.72;100.00;101938.19;5076225;28;20522;-66
2024/01/26 02:24:18;;;;;;;3.77;0.80;;;;;;;2.82;100.00;101923.50;5075697;28;20485;-66
2024/01/26 02:26:45;;;;;;;2.40;1.30;;;;;;;2.79;100.00;101914.06;5075682;28;20476;-66
2024/01/26 02:29:12;;;;;;;1.60;0.40;;;;;;;2.88;100.00;101915.44;5075631;28;20441;-66
2024/01/26 02:31:39;;;;;;;2.57;0.77;;;;;;;2.86;100.00;101908.66;5075533;28;20814;-66
2024/01/26 02:34:06;;;;;;;3.67;1.13;;;;;;;2.74;100.00;101904.00;5075848;28;20480;-66
2024/01/26 02:36:35;;;;;;;1.60;0.50;;;;;;;2.57;100.00;101905.56;5075048;28;20448;-66
2024/01/26 02:39:01;;;;;;;2.03;1.03;;;;;;;2.49;100.00;101914.66;5075383;28;20540;-66
2024/01/26 02:41:31;;;;;;;1.70;0.50;;;;;;;2.51;100.00;101904.53;5075278;28;20864;-66
2024/01/26 02:43:57;;;;;;;1.80;0.53;;;;;;;2.47;100.00;101905.19;5074941;28;20491;-66
2024/01/26 02:46:24;;;;;;;1.80;0.50;;;;;;;2.38;100.00;101903.81;5075012;28;20909;-66
2024/01/26 02:48:50;;;;;;;2.00;0.70;;;;;;;2.35;100.00;101898.91;5074870;28;20521;-66
2024/01/26 02:51:17;;;;;;;1.57;0.40;;;;;;;2.34;100.00;101894.56;5074302;28;20534;-66
2024/01/26 02:53:44;;;;;;;1.80;0.50;;;;;;;2.28;100.00;101896.25;5074763;28;20479;-66
2024/01/26 02:56:10;;;;;;;2.40;0.80;;;;;;;2.21;100.00;101896.28;5074653;28;20787;-66
2024/01/26 02:58:38;;;;;;;2.10;0.87;;;;;;;2.12;100.00;101889.53;5074715;28;20509;-66
2024/01/26 03:01:05;;;;;;;1.80;0.60;;;;;;;2.08;100.00;101892.84;5074939;28;20447;-66
2024/01/26 03:03:32;;;;;;;1.70;0.50;;;;;;;2.15;100.00;101893.63;5074464;28;20521;-66
2024/01/26 03:05:58;;;;;;;2.17;0.70;;;;;;;2.07;100.00;101893.88;5074861;28;20438;-66
2024/01/26 03:08:25;;;;;;;1.70;0.60;;;;;;;1.99;100.00;101895.78;5075169;28;20477;-66
2024/01/26 03:10:52;;;;;;;2.67;0.77;;;;;;;1.98;100.00;101890.63;5074482;28;20994;-66
2024/01/26 03:13:18;;;;;;;12.13;1.07;;;;;;;2.03;100.00;101893.47;5074629;28;20457;-66
2024/01/26 03:15:49;;;;;;;1.67;0.47;;;;;;;2.02;100.00;101889.97;5074693;28;20451;-66
2024/01/26 03:18:17;;;;;;;1.73;0.47;;;;;;;2.08;100.00;101877.66;5074992;28;20879;-66
2024/01/26 03:20:44;;;;;;;3.33;1.30;;;;;;;2.05;100.00;101875.38;5074544;28;20510;-66
2024/01/26 03:23:11;;;;;;;1.70;0.50;;;;;;;2.13;100.00;101872.47;5074792;28;20854;-66
2024/01/26 03:25:38;;;;;;;2.30;0.90;;;;;;;2.13;100.00;101875.16;5074446;28;20446;-66
2024/01/26 03:28:06;;;;;;;1.60;0.43;;;;;;;2.20;100.00;101865.22;5074127;28;20437;-66
2024/01/26 03:30:32;;;;;;;14.60;0.90;;;;;;;2.37;100.00;101870.91;5075067;28;20444;-66
2024/01/26 03:33:01;;;;;;;1.80;0.67;;;;;;;2.41;100.00;101866.78;5074144;28;20453;-66
2024/01/26 03:35:27;;;;;;;1.70;0.40;;;;;;;2.52;100.00;101857.22;5074614;28;20521;-66
2024/01/26 03:37:54;;;;;;;5.17;1.23;;;;;;;2.58;100.00;101848.34;5074586;28;20445;-66
2024/01/26 03:40:21;;;;;;;1.80;0.60;;;;;;;2.63;100.00;101837.81;5074219;28;20473;-66
2024/01/26 03:42:47;;;;;;;6.90;0.77;;;;;;;2.65;100.00;101835.75;5074037;28;20461;-66
2024/01/26 03:45:14;;;;;;;4.73;2.10;;;;;;;2.78;100.00;101830.28;5073876;28;20540;-66
2024/01/26 03:47:41;;;;;;;1.90;0.73;;;;;;;2.86;100.00;101828.38;5074116;28;20447;-66
2024/01/26 03:50:10;;;;;;;2.30;1.20;;;;;;;2.92;100.00;101824.81;5073767;28;20477;-66
2024/01/26 03:52:37;;;;;;;1.80;0.77;;;;;;;2.96;100.00;101821.50;5073978;28;20828;-66
2024/01/26 03:55:06;;;;;;;2.20;0.83;;;;;;;3.00;100.00;101825.38;5074452;28;20433;-66
2024/01/26 03:57:34;;;;;;;1.87;0.73;;;;;;;3.09;100.00;101831.25;5073921;28;20438;-66
2024/01/26 04:00:02;;;;;;;2.20;1.20;;;;;;;3.15;100.00;101827.72;5073622;28;20851;-66
2024/01/26 04:02:29;;;;;;;1.73;0.60;;;;;;;3.20;100.00;101830.56;5073319;28;20457;-66
2024/01/26 04:04:56;;;;;;;2.63;1.67;;;;;;;3.21;100.00;101828.69;5073419;28;20558;-66
2024/01/26 04:07:24;;;;;;;1.93;0.90;;;;;;;3.25;100.00;101814.63;5073701;28;20448;-66
2024/01/26 04:09:50;;;;;;;1.90;0.80;;;;;;;3.32;100.00;101808.38;5073766;28;20437;-66
2024/01/26 04:12:17;;;;;;;1.90;0.80;;;;;;;3.38;100.00;101823.56;5073572;28;20457;-66
2024/01/26 04:14:44;;;;;;;1.80;0.70;;;;;;;3.35;100.00;101807.94;5073654;28;20476;-66
2024/01/26 04:17:10;;;;;;;1.60;0.50;;;;;;;3.36;100.00;101801.53;5073661;28;20519;-66
2024/01/26 04:19:37;;;;;;;3.87;0.93;;;;;;;3.46;100.00;101804.53;5073262;28;20917;-66
2024/01/26 04:22:04;;;;;;;2.07;1.03;;;;;;;3.52;100.00;101800.97;5073479;28;20453;-66
2024/01/26 04:24:32;;;;;;;2.00;1.00;;;;;;;3.47;100.00;101803.50;5073774;28;20564;-66
2024/01/26 04:27:00;;;;;;;2.30;0.90;;;;;;;3.47;100.00;101804.31;5073731;28;20520;-66
2024/01/26 04:29:27;;;;;;;3.67;1.73;;;;;;;3.52;100.00;101798.28;5073582;28;20441;-66
2024/01/26 04:31:54;;;;;;;2.43;1.00;;;;;;;3.59;100.00;101807.06;5073737;28;20465;-66
2024/01/26 04:34:20;;;;;;;3.33;1.40;;;;;;;3.58;100.00;101808.09;5073422;28;20876;-66
2024/01/26 04:36:47;;;;;;;1.63;0.43;;;;;;;3.62;100.00;101806.59;5073361;28;20441;-66
2024/01/26 04:39:14;;;;;;;2.67;1.37;;;;;;;3.65;100.00;101803.47;5073091;28;20962;-66
2024/01/26 04:41:43;;;;;;;2.67;1.23;;;;;;;3.72;100.00;101798.88;5073284;28;20969;-66
2024/01/26 04:44:09;;;;;;;3.20;1.27;;;;;;;3.77;100.00;101800.88;5073242;28;20993;-66
2024/01/26 04:46:36;;;;;;;4.67;1.10;;;;;;;3.78;100.00;101792.59;5074014;28;20441;-66
2024/01/26 04:49:03;;;;;;;1.70;0.50;;;;;;;3.82;100.00;101792.16;5073526;28;20526;-66
2024/01/26 04:51:30;;;;;;;2.73;1.33;;;;;;;3.79;100.00;101786.19;5073189;28;20503;-66
2024/01/26 04:53:56;;;;;;;3.70;1.17;;;;;;;3.85;100.00;101791.69;5073303;28;20473;-66
2024/01/26 04:56:23;;;;;;;2.87;1.40;;;;;;;3.84;100.00;101788.19;5073489;28;20873;-66
2024/01/26 04:58:51;;;;;;;2.80;1.17;;;;;;;3.82;100.00;101784.94;5072831;28;20437;-66
2024/01/26 05:01:17;;;;;;;2.00;0.70;;;;;;;3.83;100.00;101783.06;5073090;28;20441;-66
2024/01/26 05:03:44;;;;;;;9.10;1.50;;;;;;;3.86;100.00;101772.72;5072810;28;21012;-66
2024/01/26 05:06:11;;;;;;;26.23;1.17;;;;;;;3.92;100.00;101770.97;5073484;28;20526;-66
2024/01/26 05:08:38;;;;;;;1.60;0.40;;;;;;;3.98;100.00;101770.06;5073440;28;20437;-66
2024/01/26 05:11:05;;;;;;;2.37;0.63;;;;;;;4.05;100.00;101774.28;5073354;28;20923;-66
2024/01/26 05:13:31;;;;;;;2.50;1.07;;;;;;;4.07;100.00;101774.06;5073061;28;20503;-66
2024/01/26 05:15:59;;;;;;;1.80;0.50;;;;;;;4.10;100.00;101762.06;5076704;28;20495;-66
2024/01/26 05:18:28;;;;;;;1.80;0.70;;;;;;;4.16;100.00;101759.31;5076872;28;20811;-66
2024/01/26 05:20:54;;;;;;;1.80;0.80;;;;;;;4.20;100.00;101756.97;5076813;28;20476;-66
2024/01/26 05:23:21;;;;;;;2.53;1.23;;;;;;;4.23;100.00;101760.00;5076306;28;20972;-66
2024/01/26 05:25:48;;;;;;;2.57;1.00;;;;;;;4.17;100.00;101754.75;5076709;28;20441;-66
2024/01/26 05:28:15;;;;;;;2.17;1.03;;;;;;;4.18;100.00;101749.16;5076713;28;20783;-66
2024/01/26 05:30:42;;;;;;;7.40;1.10;;;;;;;4.23;100.00;101751.16;5076688;28;20990;-66
2024/01/26 05:33:10;;;;;;;3.70;1.07;;;;;;;4.25;100.00;101744.53;5076230;28;20586;-66
2024/01/26 05:35:37;;;;;;;2.93;1.53;;;;;;;4.28;100.00;101740.53;5076934;28;20524;-66
2024/01/26 05:38:04;;;;;;;2.00;0.73;;;;;;;4.29;100.00;101728.75;5075947;28;20989;-66
2024/01/26 05:40:31;;;;;;;3.73;1.53;;;;;;;4.22;100.00;101728.88;5076127;28;20512;-66
2024/01/26 05:45:26;;;;;;;3.40;1.50;;;;;;;4.17;100.00;101728.75;5073721;28;20484;-74
2024/01/26 05:47:53;;;;;;;1.73;0.60;;;;;;;4.14;100.00;101706.94;5076305;28;20495;-74
2024/01/26 05:50:21;;;;;;;2.50;1.30;;;;;;;4.12;100.00;101707.19;5076065;28;20524;-74
2024/01/26 05:52:48;;;;;;;6.23;1.63;;;;;;;4.10;100.00;101711.13;5063787;28;20488;-74
2024/01/26 05:55:15;;;;;;;2.10;0.83;;;;;;;4.04;100.00;101718.22;5056546;28;20434;-74
2024/01/26 05:57:43;;;;;;;2.30;1.00;;;;;;;4.06;100.00;101713.44;5055917;28;20453;-74
2024/01/26 06:00:10;;;;;;;3.40;1.23;;;;;;;4.09;100.00;101707.63;5055652;28;20426;-74
2024/01/26 06:02:37;;;;;;;1.60;0.50;;;;;;;3.96;100.00;101708.66;5056232;28;20462;-73
2024/01/26 06:05:04;;;;;;;3.07;1.40;;;;;;;3.96;100.00;101702.47;5055990;28;20477;-73
2024/01/26 06:07:32;;;;;;;4.47;1.70;;;;;;;3.94;100.00;101704.56;5056466;28;20468;-73
2024/01/26 06:09:58;;;;;;;2.73;1.37;;;;;;;3.90;100.00;101688.13;5055952;28;20525;-73
2024/01/26 06:12:25;;;;;;;3.70;2.03;;;;;;;3.80;100.00;101682.50;5056194;28;20493;-73
2024/01/26 06:14:52;;;;;;;2.93;2.03;;;;;;;3.76;100.00;101671.44;5055929;28;20438;-74
2024/01/26 06:17:18;;;;;;;2.57;1.13;;;;;;;3.66;100.00;101678.38;5056187;28;20529;-74
2024/01/26 06:19:45;;;;;;;8.80;2.10;;;;;;;3.65;100.00;101674.88;5056211;28;20521;-74
2024/01/26 06:22:12;;;;;;;2.60;0.97;;;;;;;3.65;100.00;101669.53;5055381;28;20987;-74
2024/01/26 06:24:40;;;;;;;2.00;0.93;;;;;;;3.64;100.00;101662.53;5055689;28;20488;-74
2024/01/26 06:27:07;;;;;;;1.80;0.77;;;;;;;3.67;100.00;101661.25;5054638;28;20495;-74
2024/01/26 06:29:33;;;;;;;3.70;1.13;;;;;;;3.70;100.00;101658.13;5056060;28;20430;-74
2024/01/26 06:32:00;;;;;;;1.70;0.50;;;;;;;3.71;100.00;101657.06;5055760;28;20541;-74
2024/01/26 06:34:27;;;;;;;2.07;0.70;;;;;;;3.71;100.00;101660.56;5055815;28;20525;-74
2024/01/26 06:36:54;;;;;;;2.80;0.93;;;;;;;3.72;100.00;101650.69;5055669;28;20474;-74
2024/01/26 06:39:21;;;;;;;1.97;0.90;;;;;;;3.71;100.00;101641.81;5055396;28;20438;-74
2024/01/26 06:41:49;;;;;;;1.80;0.70;;;;;;;3.75;100.00;101634.13;5054938;28;21041;-74
2024/01/26 06:44:16;;;;;;;2.80;1.00;;;;;;;3.74;100.00;101640.53;5055181;28;20482;-74
2024/01/26 06:46:43;;;;;;;4.17;1.10;;;;;;;3.74;100.00;101635.19;5055271;28;20442;-74
2024/01/26 06:49:10;;;;;;;2.63;1.03;;;;;;;3.76;100.00;101644.66;5054940;28;20856;-74
2024/01/26 06:51:37;;;;;;;2.80;1.17;;;;;;;3.76;100.00;101654.53;5055248;28;21013;-73
2024/01/26 06:54:04;;;;;;;5.43;1.07;;;;;;;3.75;100.00;101658.25;5055144;28;20479;-73
2024/01/26 06:56:30;;;;;;;3.67;1.40;;;;;;;3.76;100.00;101644.66;5055416;28;20533;-73
2024/01/26 06:58:58;;;;;;;2.43;1.20;;;;;;;3.75;100.00;101651.03;5055090;28;20954;-73
2024/01/26 07:01:25;;;;;;;4.00;1.10;;;;;;;3.73;100.00;101642.41;5054931;28;20438;-73
2024/01/26 07:03:52;;;;;;;3.33;2.77;;;;;;;3.77;100.00;101646.28;5055254;28;20438;-73
2024/01/26 07:06:18;;;;;;;2.60;1.87;;;;;;;3.81;100.00;101641.28;5055240;28;20539;-73
2024/01/26 07:08:45;;;;;;;5.10;1.07;;;;;;;3.78;100.00;101634.50;5054868;28;20531;-73
2024/01/26 07:11:12;;;;;;;2.47;1.33;;;;;;;3.83;100.00;101625.78;5054934;28;20811;-73
2024/01/26 07:13:38;;;;;;;2.43;1.10;;;;;;;3.86;100.00;101636.03;5055272;28;20509;-73
2024/01/26 07:16:07;;;;;;;2.10;1.13;;;;;;;3.88;100.00;101635.81;5054465;28;20445;-73
2024/01/26 07:18:34;;;;;;;2.33;1.33;;;;;;;3.94;100.00;101621.47;5055227;28;20451;-73
2024/01/26 07:21:06;;;;;;;4.03;2.20;;;;;;;3.98;100.00;101630.69;5054673;28;20518;-73
2024/01/26 07:23:33;;;;;;;1.60;0.57;;;;;;;3.97;100.00;101629.88;5054600;28;20498;-76
2024/01/26 07:26:00;;;;;;;16.27;1.57;;;;;;;4.00;100.00;101634.78;5054312;28;20486;-71
2024/01/26 07:28:27;;;;;;;3.17;2.03;;;;;;;4.00;100.00;101628.59;5054575;28;20446;-73
2024/01/26 07:30:54;;;;;;;2.27;1.07;;;;;;;4.05;100.00;101620.69;5054279;28;20906;-73
2024/01/26 07:33:22;;;;;;;3.43;2.00;;;;;;;4.07;100.00;101613.19;5054899;28;20541;-73
2024/01/26 07:35:48;;;;;;;2.90;0.87;;;;;;;4.08;100.00;101601.47;5054674;28;20438;-73
2024/01/26 07:38:15;;;;;;;2.93;1.60;;;;;;;4.05;100.00;101600.03;5053858;28;20466;-73
2024/01/26 07:40:42;;;;;;;2.33;1.13;;;;;;;4.08;100.00;101598.78;5054358;28;20529;-73
2024/01/26 07:43:09;;;;;;;7.60;2.57;;;;;;;4.10;100.00;101593.16;5053644;28;20462;-73
2024/01/26 07:45:36;;;;;;;2.87;1.33;;;;;;;4.14;100.00;101595.16;5054173;28;20473;-73
2024/01/26 07:48:03;;;;;;;3.07;1.77;;;;;;;4.17;100.00;101592.00;5054127;28;20437;-73
2024/01/26 07:50:31;;;;;;;2.73;1.47;;;;;;;4.23;100.00;101588.38;5054147;28;20989;-73
2024/01/26 07:52:58;;;;;;;2.17;0.93;;;;;;;4.27;100.00;101580.69;5054550;28;20865;-73
2024/01/26 07:55:25;;;;;;;2.93;1.33;;;;;;;4.25;100.00;101559.50;5053646;28;20961;-73
2024/01/26 07:57:51;;;;;;;25.13;2.37;;;;;;;4.34;100.00;101557.25;5054404;28;20442;-73
2024/01/26 08:00:19;;;;;;;2.70;0.93;;;;;;;4.44;100.00;101564.72;5054282;28;20517;-73
2024/01/26 08:02:45;;;;;;;4.80;2.63;;;;;;;4.47;100.00;101557.00;5053630;28;21033;-73
2024/01/26 08:05:12;;;;;;;2.47;1.33;;;;;;;4.50;100.00;101553.84;5053448;28;20846;-73
2024/01/26 08:07:40;;;;;;;1.80;0.60;;;;;;;4.51;100.00;101554.66;5054155;28;20512;-73
2024/01/26 08:10:09;;;;;;;1.80;0.83;;;;;;;4.55;100.00;101548.56;5054073;28;20492;-73
2024/01/26 08:12:36;;;;;;;7.50;2.80;;;;;;;4.63;100.00;101541.22;5053971;28;20549;-73
2024/01/26 08:15:03;;;;;;;2.00;1.00;;;;;;;4.69;100.00;101538.41;5054261;28;20565;-73
2024/01/26 08:17:29;;;;;;;3.00;1.10;;;;;;;4.69;100.00;101530.38;5053674;28;20529;-74
2024/01/26 08:19:57;;;;;;;2.17;0.93;;;;;;;4.72;100.00;101524.50;5053641;28;20481;-73
2024/01/26 08:22:23;;;;;;;3.83;1.93;;;;;;;4.80;100.00;101518.75;5054210;28;20784;-73
2024/01/26 08:24:51;;;;;;;8.63;2.23;;;;;;;4.87;100.00;101525.84;5053819;28;20488;-73
2024/01/26 08:27:18;;;;;;;3.50;1.90;;;;;;;4.92;100.00;101524.09;5053865;28;20525;-73
2024/01/26 08:29:45;;;;;;;6.10;2.40;;;;;;;4.99;100.00;101518.56;5053266;28;20982;-73
2024/01/26 08:32:11;;;;;;;2.40;1.30;;;;;;;5.04;100.00;101515.97;5053415;28;20497;-73
2024/01/26 08:34:38;;;;;;;6.53;0.97;;;;;;;5.02;100.00;101512.72;5053455;28;20515;-73
2024/01/26 08:37:05;;;;;;;2.57;1.10;;;;;;;5.05;100.00;101506.88;5053100;28;20478;-74
2024/01/26 08:39:32;;;;;;;3.20;1.57;;;;;;;5.09;100.00;101497.28;5053637;28;20515;-74
2024/01/26 08:42:00;;;;;;;5.20;1.30;;;;;;;5.09;100.00;101499.97;5053089;28;20489;-73
2024/01/26 08:44:26;;;;;;;2.77;1.17;;;;;;;5.11;100.00;101499.72;5052974;28;20494;-73
2024/01/26 08:46:54;;;;;;;12.00;1.70;;;;;;;5.09;100.00;101499.97;5053008;28;21016;-73
2024/01/26 08:49:20;;;;;;;11.17;2.47;;;;;;;5.13;100.00;101498.41;5054060;28;20930;-73
2024/01/26 08:51:47;;;;;;;2.63;1.40;;;;;;;5.15;100.00;101492.81;5057324;28;20553;-73
2024/01/26 08:54:14;;;;;;;4.43;1.63;;;;;;;5.14;100.00;101483.13;5057380;28;20452;-73
2024/01/26 08:56:41;;;;;;;2.70;0.90;;;;;;;5.18;100.00;101490.47;5057333;28;20430;-73
2024/01/26 08:59:09;;;;;;;2.17;0.90;;;;;;;5.29;100.00;101475.31;5057327;28;20446;-73
2024/01/26 09:01:36;;;;;;;4.03;1.67;;;;;;;5.35;100.00;101463.59;5057516;28;20489;-74
2024/01/26 09:04:05;;;;;;;5.77;1.03;;;;;;;5.42;100.00;101458.06;5057123;28;20931;-73
2024/01/26 09:06:31;;;;;;;2.40;1.20;;;;;;;5.51;100.00;101453.91;5057055;28;20836;-73
2024/01/26 09:08:58;;;;;;;2.37;1.20;;;;;;;5.54;100.00;101429.25;5057073;28;20434;-73
2024/01/26 09:11:24;;;;;;;5.20;2.30;;;;;;;5.58;100.00;101430.38;5057010;28;20520;-74
2024/01/26 09:13:51;;;;;;;2.13;1.00;;;;;;;5.59;100.00;101429.31;5057037;28;20482;-73
2024/01/26 09:16:19;;;;;;;2.40;1.10;;;;;;;5.68;100.00;101419.75;5056931;28;20434;-73
2024/01/26 09:18:46;;;;;;;2.53;1.23;;;;;;;5.74;100.00;101404.50;5057290;28;20537;-73
2024/01/26 09:21:12;;;;;;;9.70;1.37;;;;;;;5.81;100.00;101389.03;5056833;28;20496;-73
2024/01/26 09:23:39;;;;;;;2.93;1.20;;;;;;;5.88;100.00;101380.75;5057265;28;20468;-73
2024/01/26 09:26:06;;;;;;;2.03;0.90;;;;;;;5.94;100.00;101369.88;5056544;28;20920;-73
2024/01/26 09:28:33;;;;;;;1.90;0.73;;;;;;;6.01;100.00;101388.47;5056697;28;20438;-73
2024/01/26 09:30:59;;;;;;;2.43;0.93;;;;;;;6.09;100.00;101388.03;5056738;28;20480;-73
2024/01/26 09:33:27;;;;;;;5.10;2.20;;;;;;;6.13;100.00;101396.44;5056581;28;20899;-73
2024/01/26 09:35:54;;;;;;;9.60;3.57;;;;;;;6.14;100.00;101382.72;5056809;28;20452;-74
2024/01/26 09:38:21;;;;;;;4.23;2.37;;;;;;;6.18;100.00;101378.47;5056582;28;20442;-73
2024/01/26 09:40:47;;;;;;;4.90;1.60;;;;;;;6.29;100.00;101372.16;5056208;28;20534;-73
2024/01/26 09:43:14;;;;;;;2.47;0.70;;;;;;;6.36;100.00;101360.38;5056291;28;20497;-73
2024/01/26 09:45:41;;;;;;;3.27;1.33;;;;;;;6.46;100.00;101366.69;5056613;28;20466;-73
2024/01/26 09:48:08;;;;;;;2.87;1.10;;;;;;;6.57;100.00;101367.56;5056153;28;20528;-74
2024/01/26 09:50:36;;;;;;;3.40;1.33;;;;;;;6.64;100.00;101360.13;5056395;28;20965;-74
2024/01/26 09:53:04;;;;;;;4.93;1.53;;;;;;;6.71;100.00;101371.47;5056560;28;21049;-73
2024/01/26 09:55:32;;;;;;;2.37;0.80;;;;;;;6.76;100.00;101354.56;5056259;28;20434;-73
2024/01/26 09:57:59;;;;;;;2.03;1.00;;;;;;;6.75;100.00;101352.94;5056446;28;20843;-73
2024/01/26 10:00:26;;;;;;;6.50;1.07;;;;;;;6.78;100.00;101342.47;5055845;28;20470;-73
2024/01/26 10:02:53;;;;;;;4.53;1.57;;;;;;;6.86;100.00;101337.66;5056007;28;20551;-73
2024/01/26 10:05:21;;;;;;;10.77;1.83;;;;;;;6.89;100.00;101329.06;5055981;28;20573;-73
2024/01/26 10:07:49;;;;;;;3.60;1.23;;;;;;;6.95;100.00;101293.03;5056020;28;20815;-73
2024/01/26 10:10:16;;;;;;;3.80;1.77;;;;;;;7.00;100.00;101293.88;5056304;28;20540;-73
2024/01/26 10:12:43;;;;;;;2.20;1.10;;;;;;;7.16;100.00;101283.19;5055836;28;20470;-73
2024/01/26 10:15:10;;;;;;;3.50;1.20;;;;;;;7.26;100.00;101276.00;5056549;28;20521;-73
2024/01/26 10:17:37;;;;;;;5.03;1.20;;;;;;;7.42;100.00;101270.66;5055615;28;20848;-73
2024/01/26 10:20:13;;;;;;;4.77;1.93;;;;;;;7.52;100.00;101284.19;5056057;28;20533;-73
2024/01/26 10:22:40;;;;;;;2.47;1.40;;;;;;;7.59;100.00;101282.06;5055979;28;20466;-73
2024/01/26 10:25:09;;;;;;;3.37;1.57;;;;;;;7.67;100.00;101289.66;5055327;28;20875;-73
2024/01/26 10:27:36;;;;;;;2.63;1.03;;;;;;;7.74;100.00;101295.59;5056230;28;20438;-73
2024/01/26 10:30:04;;;;;;;2.57;1.27;;;;;;;7.69;100.00;101282.09;5055333;28;21041;-75
2024/01/26 10:32:32;;;;;;;2.70;1.27;;;;;;;7.77;100.00;101267.28;5055579;28;21012;-76
2024/01/26 10:35:00;;;;;;;3.43;1.37;;;;;;;7.84;100.00;101263.28;5055510;28;20481;-71
2024/01/26 10:37:28;;;;;;;8.70;1.93;;;;;;;7.91;100.00;101264.91;5055960;28;20477;-71
2024/01/26 10:39:56;;;;;;;6.30;1.97;;;;;;;7.91;100.00;101254.13;5055642;28;20480;-72
2024/01/26 10:42:24;;;;;;;3.63;1.30;;;;;;;8.02;100.00;101248.47;5055282;28;20458;-75
2024/01/26 10:44:53;;;;;;;2.93;0.90;;;;;;;8.16;100.00;101227.19;5055026;28;20450;-75
2024/01/26 10:47:20;;;;;;;3.90;0.90;;;;;;;8.31;100.00;101210.16;5055225;28;20576;-75
2024/01/26 10:49:48;;;;;;;4.23;1.70;;;;;;;8.51;100.00;101195.91;5055686;28;20444;-74
2024/01/26 10:52:18;;;;;;;3.13;1.10;;;;;;;8.71;100.00;101178.84;5055189;28;20469;-74
2024/01/26 10:54:46;;;;;;;4.53;1.40;;;;;;;8.85;100.00;101169.06;5055323;28;20442;-73
2024/01/26 10:57:13;;;;;;;2.87;1.20;;;;;;;8.93;100.00;101162.31;5055529;28;20438;-74
2024/01/26 10:59:43;;;;;;;6.20;2.10;;;;;;;8.93;100.00;101170.41;5055423;28;20443;-74
2024/01/26 11:02:13;;;;;;;4.33;1.63;;;;;;;8.97;99.39;101179.56;5055684;28;20458;-72
2024/01/26 11:04:42;;;;;;;4.80;1.70;;;;;;;8.96;98.94;101172.56;5055171;28;20510;-72
2024/01/26 11:07:09;;;;;;;3.23;1.30;;;;;;;8.88;99.27;101162.31;5054843;28;20489;-72
2024/01/26 11:09:38;;;;;;;3.17;1.40;;;;;;;8.92;99.16;101144.47;5055383;28;20521;-72
2024/01/26 11:12:08;;;;;;;4.50;1.77;;;;;;;8.94;99.34;101145.84;5054099;28;20965;-72
2024/01/26 11:14:35;;;;;;;3.20;1.53;;;;;;;8.87;99.63;101134.50;5055154;28;20450;-72
2024/01/26 11:17:11;;;;;;;3.40;1.67;;;;;;;8.86;99.96;101138.28;5055403;28;20524;-72
2024/01/26 11:19:37;;;;;;;4.23;2.10;;;;;;;8.84;100.00;101126.94;5054556;28;20525;-72
2024/01/26 11:22:06;;;;;;;6.33;2.30;;;;;;;8.83;100.00;101126.13;5054514;28;20458;-72
2024/01/26 11:24:34;;;;;;;3.00;1.07;;;;;;;8.84;100.00;101108.03;5054576;28;20541;-71
2024/01/26 11:27:02;;;;;;;3.47;1.43;;;;;;;8.79;100.00;101099.94;5054439;28;20517;-73